sensor_id;sensor_type;location;lat;lon;timestamp;pressure;altitude;pressure_sealevel;temperature;humidity
35655;BME280;21773;50.010;19.972;2023-01-28T00:01:47;99156.34;;;5.66;46.17
35655;BME280;21773;50.010;19.972;2023-01-28T00:04:51;99161.13;;;5.71;46.32
35655;BME280;21773;50.010;19.972;2023-01-28T00:07:55;99157.69;;;5.77;46.33
35655;BME280;21773;50.010;19.972;2023-01-28T00:10:59;99160.19;;;5.78;46.13
35655;BME280;21773;50.010;19.972;2023-01-28T00:14:03;99153.44;;;5.82;46.05
35655;BME280;21773;50.010;19.972;2023-01-28T00:17:06;99154.28;;;5.83;46.07
35655;BME280;21773;50.010;19.972;2023-01-28T00:20:10;99148.41;;;5.87;46.00
35655;BME280;21773;50.010;19.972;2023-01-28T00:23:15;99155.69;;;5.93;45.89
35655;BME280;21773;50.010;19.972;2023-01-28T00:26:18;99157.09;;;5.89;45.86
35655;BME280;21773;50.010;19.972;2023-01-28T00:29:22;99158.94;;;5.89;46.13
35655;BME280;21773;50.010;19.972;2023-01-28T00:32:25;99165.19;;;5.81;45.95
35655;BME280;21773;50.010;19.972;2023-01-28T00:35:29;99168.16;;;5.86;46.28
35655;BME280;21773;50.010;19.972;2023-01-28T00:38:34;99170.00;;;5.86;46.21
35655;BME280;21773;50.010;19.972;2023-01-28T00:41:37;99168.97;;;5.87;46.04
35655;BME280;21773;50.010;19.972;2023-01-28T00:44:41;99164.28;;;5.89;46.26
35655;BME280;21773;50.010;19.972;2023-01-28T00:47:44;99162.63;;;5.88;46.13
35655;BME280;21773;50.010;19.972;2023-01-28T00:50:49;99163.47;;;5.88;46.25
35655;BME280;21773;50.010;19.972;2023-01-28T00:53:55;99168.59;;;5.75;46.21
35655;BME280;21773;50.010;19.972;2023-01-28T00:56:58;99166.19;;;5.80;46.25
35655;BME280;21773;50.010;19.972;2023-01-28T01:00:02;99162.41;;;5.75;46.68
35655;BME280;21773;50.010;19.972;2023-01-28T01:03:05;99160.84;;;5.65;46.65
35655;BME280;21773;50.010;19.972;2023-01-28T01:06:10;99153.25;;;5.54;47.07
35655;BME280;21773;50.010;19.972;2023-01-28T01:09:15;99163.53;;;5.65;47.16
35655;BME280;21773;50.010;19.972;2023-01-28T01:12:18;99162.69;;;5.65;47.16
35655;BME280;21773;50.010;19.972;2023-01-28T01:15:22;99172.09;;;5.61;47.13
35655;BME280;21773;50.010;19.972;2023-01-28T01:18:25;99166.91;;;5.45;47.56
35655;BME280;21773;50.010;19.972;2023-01-28T01:21:29;99166.25;;;5.43;47.44
35655;BME280;21773;50.010;19.972;2023-01-28T01:24:34;99171.31;;;5.38;47.74
35655;BME280;21773;50.010;19.972;2023-01-28T01:27:38;99171.38;;;5.30;47.94
35655;BME280;21773;50.010;19.972;2023-01-28T01:30:41;99176.34;;;5.18;48.46
35655;BME280;21773;50.010;19.972;2023-01-28T01:33:45;99179.19;;;5.16;48.27
35655;BME280;21773;50.010;19.972;2023-01-28T01:36:49;99172.19;;;5.15;48.43
35655;BME280;21773;50.010;19.972;2023-01-28T01:39:54;99179.66;;;5.20;48.36
35655;BME280;21773;50.010;19.972;2023-01-28T01:42:57;99179.38;;;5.15;48.49
35655;BME280;21773;50.010;19.972;2023-01-28T01:46:01;99187.69;;;5.20;48.44
35655;BME280;21773;50.010;19.972;2023-01-28T01:49:16;99185.13;;;5.27;48.19
35655;BME280;21773;50.010;19.972;2023-01-28T01:52:24;99186.78;;;5.28;48.38
35655;BME280;21773;50.010;19.972;2023-01-28T01:55:33;99184.13;;;5.28;48.28
35655;BME280;21773;50.010;19.972;2023-01-28T01:58:41;99179.31;;;5.38;48.12
35655;BME280;21773;50.010;19.972;2023-01-28T02:01:46;99187.09;;;5.47;48.08
35655;BME280;21773;50.010;19.972;2023-01-28T02:04:50;99190.69;;;5.54;47.90
35655;BME280;21773;50.010;19.972;2023-01-28T02:07:56;99176.66;;;5.52;47.68
35655;BME280;21773;50.010;19.972;2023-01-28T02:11:24;99175.94;;;5.58;47.83
35655;BME280;21773;50.010;19.972;2023-01-28T02:14:31;99195.25;;;5.68;47.67
35655;BME280;21773;50.010;19.972;2023-01-28T02:17:36;99193.03;;;5.72;47.47
35655;BME280;21773;50.010;19.972;2023-01-28T02:20:55;99196.63;;;5.79;47.44
35655;BME280;21773;50.010;19.972;2023-01-28T02:24:20;99200.50;;;5.77;47.31
35655;BME280;21773;50.010;19.972;2023-01-28T02:27:32;99200.78;;;5.82;47.22
35655;BME280;21773;50.010;19.972;2023-01-28T02:30:43;99192.13;;;5.80;47.17
35655;BME280;21773;50.010;19.972;2023-01-28T02:33:53;99194.63;;;5.81;47.23
35655;BME280;21773;50.010;19.972;2023-01-28T02:37:01;99191.56;;;5.84;47.03
35655;BME280;21773;50.010;19.972;2023-01-28T02:40:10;99189.91;;;5.83;47.08
35655;BME280;21773;50.010;19.972;2023-01-28T02:43:15;99190.38;;;5.87;46.98
35655;BME280;21773;50.010;19.972;2023-01-28T02:46:33;99190.63;;;5.77;46.95
35655;BME280;21773;50.010;19.972;2023-01-28T02:49:57;99192.00;;;5.73;47.27
35655;BME280;21773;50.010;19.972;2023-01-28T02:53:14;99198.31;;;5.80;47.22
35655;BME280;21773;50.010;19.972;2023-01-28T02:56:44;99200.44;;;5.85;46.99
35655;BME280;21773;50.010;19.972;2023-01-28T02:59:54;99192.75;;;5.82;47.22
35655;BME280;21773;50.010;19.972;2023-01-28T03:03:08;99202.44;;;5.83;46.97
35655;BME280;21773;50.010;19.972;2023-01-28T03:06:17;99204.25;;;5.90;46.83
35655;BME280;21773;50.010;19.972;2023-01-28T03:09:23;99202.66;;;5.81;46.98
35655;BME280;21773;50.010;19.972;2023-01-28T03:12:29;99194.06;;;5.71;46.73
35655;BME280;21773;50.010;19.972;2023-01-28T03:15:51;99191.81;;;5.45;47.50
35655;BME280;21773;50.010;19.972;2023-01-28T03:19:15;99191.81;;;5.45;47.54
35655;BME280;21773;50.010;19.972;2023-01-28T03:22:38;99194.84;;;5.19;47.91
35655;BME280;21773;50.010;19.972;2023-01-28T03:26:03;99194.03;;;5.19;47.99
35655;BME280;21773;50.010;19.972;2023-01-28T03:29:29;99188.75;;;5.11;48.17
35655;BME280;21773;50.010;19.972;2023-01-28T03:32:52;99194.31;;;5.24;48.19
35655;BME280;21773;50.010;19.972;2023-01-28T03:36:15;99193.97;;;5.27;48.02
35655;BME280;21773;50.010;19.972;2023-01-28T03:39:37;99193.22;;;5.33;48.03
35655;BME280;21773;50.010;19.972;2023-01-28T03:42:43;99183.34;;;5.19;47.85
35655;BME280;21773;50.010;19.972;2023-01-28T03:46:06;99189.81;;;5.24;48.13
35655;BME280;21773;50.010;19.972;2023-01-28T03:49:10;99198.50;;;5.27;48.13
35655;BME280;21773;50.010;19.972;2023-01-28T03:52:16;99191.31;;;5.27;47.95
35655;BME280;21773;50.010;19.972;2023-01-28T03:55:20;99195.19;;;5.39;47.74
35655;BME280;21773;50.010;19.972;2023-01-28T03:58:27;99196.69;;;5.42;47.70
35655;BME280;21773;50.010;19.972;2023-01-28T04:01:51;99182.72;;;5.17;47.69
35655;BME280;21773;50.010;19.972;2023-01-28T04:04:56;99207.25;;;5.35;47.68
35655;BME280;21773;50.010;19.972;2023-01-28T04:08:01;99205.44;;;5.36;47.85
35655;BME280;21773;50.010;19.972;2023-01-28T04:11:24;99200.16;;;5.28;47.75
35655;BME280;21773;50.010;19.972;2023-01-28T04:14:29;99209.22;;;5.41;47.78
35655;BME280;21773;50.010;19.972;2023-01-28T04:17:46;99212.19;;;5.46;47.74
35655;BME280;21773;50.010;19.972;2023-01-28T04:20:57;99196.47;;;5.43;47.72
35655;BME280;21773;50.010;19.972;2023-01-28T04:24:02;99199.66;;;5.47;47.69
35655;BME280;21773;50.010;19.972;2023-01-28T04:27:06;99211.31;;;5.31;47.64
35655;BME280;21773;50.010;19.972;2023-01-28T04:30:10;99213.88;;;5.24;47.73
35655;BME280;21773;50.010;19.972;2023-01-28T04:33:20;99211.66;;;5.28;47.70
35655;BME280;21773;50.010;19.972;2023-01-28T04:36:56;99219.97;;;5.33;47.67
35655;BME280;21773;50.010;19.972;2023-01-28T04:40:39;99219.25;;;5.39;47.81
35655;BME280;21773;50.010;19.972;2023-01-28T04:43:46;99220.75;;;5.42;47.83
35655;BME280;21773;50.010;19.972;2023-01-28T04:47:22;99221.69;;;5.49;47.74
35655;BME280;21773;50.010;19.972;2023-01-28T04:50:37;99217.63;;;5.15;47.96
35655;BME280;21773;50.010;19.972;2023-01-28T04:53:48;99230.38;;;5.28;47.70
35655;BME280;21773;50.010;19.972;2023-01-28T04:57:02;99222.25;;;5.21;47.66
35655;BME280;21773;50.010;19.972;2023-01-28T05:00:07;99212.69;;;5.04;47.74
35655;BME280;21773;50.010;19.972;2023-01-28T05:03:11;99219.00;;;5.11;47.81
35655;BME280;21773;50.010;19.972;2023-01-28T05:06:15;99222.88;;;5.23;47.85
35655;BME280;21773;50.010;19.972;2023-01-28T05:09:20;99225.47;;;5.17;48.00
35655;BME280;21773;50.010;19.972;2023-01-28T05:12:26;99229.31;;;5.14;47.65
35655;BME280;21773;50.010;19.972;2023-01-28T05:15:31;99229.56;;;5.05;47.72
35655;BME280;21773;50.010;19.972;2023-01-28T05:18:34;99232.75;;;5.00;48.14
35655;BME280;21773;50.010;19.972;2023-01-28T05:21:42;99243.16;;;4.95;48.20
35655;BME280;21773;50.010;19.972;2023-01-28T05:24:57;99246.06;;;4.86;48.34
35655;BME280;21773;50.010;19.972;2023-01-28T05:28:02;99253.50;;;4.98;48.24
35655;BME280;21773;50.010;19.972;2023-01-28T05:31:06;99254.44;;;5.05;48.13
35655;BME280;21773;50.010;19.972;2023-01-28T05:34:09;99252.00;;;4.96;48.00
35655;BME280;21773;50.010;19.972;2023-01-28T05:37:13;99257.19;;;4.97;48.03
35655;BME280;21773;50.010;19.972;2023-01-28T05:40:18;99256.56;;;5.10;48.03
35655;BME280;21773;50.010;19.972;2023-01-28T05:43:23;99249.63;;;5.01;47.81
35655;BME280;21773;50.010;19.972;2023-01-28T05:46:46;99253.75;;;5.11;47.92
35655;BME280;21773;50.010;19.972;2023-01-28T05:50:12;99250.81;;;5.21;48.07
35655;BME280;21773;50.010;19.972;2023-01-28T05:53:39;99254.03;;;5.16;47.75
35655;BME280;21773;50.010;19.972;2023-01-28T05:56:42;99266.88;;;5.21;47.40
35655;BME280;21773;50.010;19.972;2023-01-28T05:59:47;99265.19;;;5.20;47.27
35655;BME280;21773;50.010;19.972;2023-01-28T06:02:51;99265.72;;;5.15;47.29
35655;BME280;21773;50.010;19.972;2023-01-28T06:05:55;99265.06;;;5.13;47.33
35655;BME280;21773;50.010;19.972;2023-01-28T06:08:58;99274.56;;;5.16;47.29
35655;BME280;21773;50.010;19.972;2023-01-28T06:12:05;99278.94;;;5.17;47.45
35655;BME280;21773;50.010;19.972;2023-01-28T06:15:21;99286.41;;;5.21;47.34
35655;BME280;21773;50.010;19.972;2023-01-28T06:18:50;99289.19;;;5.28;47.47
35655;BME280;21773;50.010;19.972;2023-01-28T06:21:54;99291.22;;;5.26;47.20
35655;BME280;21773;50.010;19.972;2023-01-28T06:24:57;99294.06;;;5.24;47.43
35655;BME280;21773;50.010;19.972;2023-01-28T06:28:01;99305.44;;;5.18;47.36
35655;BME280;21773;50.010;19.972;2023-01-28T06:31:05;99305.13;;;5.21;47.57
35655;BME280;21773;50.010;19.972;2023-01-28T06:34:09;99315.56;;;5.31;47.59
35655;BME280;21773;50.010;19.972;2023-01-28T06:37:12;99309.56;;;5.29;47.66
35655;BME280;21773;50.010;19.972;2023-01-28T06:40:16;99313.75;;;5.32;47.46
35655;BME280;21773;50.010;19.972;2023-01-28T06:43:20;99308.50;;;5.38;47.49
35655;BME280;21773;50.010;19.972;2023-01-28T06:46:29;99313.81;;;5.46;47.13
35655;BME280;21773;50.010;19.972;2023-01-28T06:49:33;99318.13;;;5.47;47.09
35655;BME280;21773;50.010;19.972;2023-01-28T06:52:36;99324.13;;;5.49;46.97
35655;BME280;21773;50.010;19.972;2023-01-28T06:55:39;99331.22;;;5.42;47.19
35655;BME280;21773;50.010;19.972;2023-01-28T06:58:43;99327.56;;;5.35;47.05
35655;BME280;21773;50.010;19.972;2023-01-28T07:01:48;99331.00;;;5.21;47.43
35655;BME280;21773;50.010;19.972;2023-01-28T07:04:51;99332.19;;;5.18;47.35
35655;BME280;21773;50.010;19.972;2023-01-28T07:07:54;99341.56;;;5.14;47.39
35655;BME280;21773;50.010;19.972;2023-01-28T07:10:58;99327.91;;;5.09;47.52
35655;BME280;21773;50.010;19.972;2023-01-28T07:14:01;99342.47;;;5.30;47.45
35655;BME280;21773;50.010;19.972;2023-01-28T07:17:07;99339.34;;;5.26;47.36
35655;BME280;21773;50.010;19.972;2023-01-28T07:20:12;99343.75;;;5.42;47.13
35655;BME280;21773;50.010;19.972;2023-01-28T07:23:17;99346.88;;;5.45;47.26
35655;BME280;21773;50.010;19.972;2023-01-28T07:26:20;99351.03;;;5.48;47.08
35655;BME280;21773;50.010;19.972;2023-01-28T07:29:24;99360.03;;;5.55;46.99
35655;BME280;21773;50.010;19.972;2023-01-28T07:32:29;99355.78;;;5.38;46.70
35655;BME280;21773;50.010;19.972;2023-01-28T07:35:32;99361.84;;;5.32;46.62
35655;BME280;21773;50.010;19.972;2023-01-28T07:38:36;99361.41;;;5.20;46.20
35655;BME280;21773;50.010;19.972;2023-01-28T07:41:40;99357.22;;;5.26;45.85
35655;BME280;21773;50.010;19.972;2023-01-28T07:45:00;99364.53;;;5.32;46.35
35655;BME280;21773;50.010;19.972;2023-01-28T07:48:06;99362.84;;;5.08;46.44
35655;BME280;21773;50.010;19.972;2023-01-28T07:51:09;99364.69;;;5.30;46.60
35655;BME280;21773;50.010;19.972;2023-01-28T07:54:13;99356.97;;;5.35;46.52
35655;BME280;21773;50.010;19.972;2023-01-28T07:57:16;99362.41;;;5.27;46.19
35655;BME280;21773;50.010;19.972;2023-01-28T08:00:25;99365.69;;;5.37;46.21
35655;BME280;21773;50.010;19.972;2023-01-28T08:03:30;99361.25;;;5.44;46.30
35655;BME280;21773;50.010;19.972;2023-01-28T08:06:34;99362.78;;;5.47;46.11
35655;BME280;21773;50.010;19.972;2023-01-28T08:09:39;99346.59;;;5.40;45.77
35655;BME280;21773;50.010;19.972;2023-01-28T08:12:50;99368.59;;;5.50;45.68
35655;BME280;21773;50.010;19.972;2023-01-28T08:15:54;99368.13;;;5.47;45.92
35655;BME280;21773;50.010;19.972;2023-01-28T08:18:59;99379.97;;;5.44;45.77
35655;BME280;21773;50.010;19.972;2023-01-28T08:22:03;99381.56;;;5.31;46.18
35655;BME280;21773;50.010;19.972;2023-01-28T08:25:07;99381.75;;;5.29;45.93
35655;BME280;21773;50.010;19.972;2023-01-28T08:28:11;99379.91;;;5.30;45.80
35655;BME280;21773;50.010;19.972;2023-01-28T08:31:14;99373.69;;;5.37;45.53
35655;BME280;21773;50.010;19.972;2023-01-28T08:34:19;99381.75;;;5.29;44.98
35655;BME280;21773;50.010;19.972;2023-01-28T08:37:23;99381.56;;;5.31;45.02
35655;BME280;21773;50.010;19.972;2023-01-28T08:40:26;99349.25;;;5.17;45.08
35655;BME280;21773;50.010;19.972;2023-01-28T08:43:30;99379.16;;;5.44;45.17
35655;BME280;21773;50.010;19.972;2023-01-28T08:46:33;99391.97;;;5.48;45.35
35655;BME280;21773;50.010;19.972;2023-01-28T08:49:38;99385.41;;;5.59;45.22
35655;BME280;21773;50.010;19.972;2023-01-28T08:52:41;99387.13;;;5.75;44.76
35655;BME280;21773;50.010;19.972;2023-01-28T08:55:45;99389.63;;;5.76;44.66
35655;BME280;21773;50.010;19.972;2023-01-28T08:58:49;99392.06;;;5.86;44.10
35655;BME280;21773;50.010;19.972;2023-01-28T09:01:53;99396.59;;;5.85;44.81
35655;BME280;21773;50.010;19.972;2023-01-28T09:04:59;99409.75;;;5.95;46.29
35655;BME280;21773;50.010;19.972;2023-01-28T09:08:03;99408.00;;;6.02;44.83
35655;BME280;21773;50.010;19.972;2023-01-28T09:11:07;99407.00;;;6.03;43.93
35655;BME280;21773;50.010;19.972;2023-01-28T09:14:10;99401.38;;;5.98;43.89
35655;BME280;21773;50.010;19.972;2023-01-28T09:17:13;99403.19;;;5.97;44.64
35655;BME280;21773;50.010;19.972;2023-01-28T09:20:19;99406.53;;;5.99;44.31
35655;BME280;21773;50.010;19.972;2023-01-28T09:23:22;99404.03;;;5.98;43.88
35655;BME280;21773;50.010;19.972;2023-01-28T09:26:25;99395.47;;;6.02;46.13
35655;BME280;21773;50.010;19.972;2023-01-28T09:29:28;99405.91;;;6.12;44.52
35655;BME280;21773;50.010;19.972;2023-01-28T09:32:32;99399.81;;;6.03;43.76
35655;BME280;21773;50.010;19.972;2023-01-28T09:35:36;99409.13;;;6.07;44.04
35655;BME280;21773;50.010;19.972;2023-01-28T09:38:40;99407.41;;;6.15;43.93
35655;BME280;21773;50.010;19.972;2023-01-28T09:41:51;99399.56;;;6.13;43.79
35655;BME280;21773;50.010;19.972;2023-01-28T09:45:08;99404.31;;;6.03;43.98
35655;BME280;21773;50.010;19.972;2023-01-28T09:48:19;99399.94;;;6.10;43.78
35655;BME280;21773;50.010;19.972;2023-01-28T09:51:31;99398.25;;;6.09;44.10
35655;BME280;21773;50.010;19.972;2023-01-28T09:54:41;99398.50;;;5.99;43.95
35655;BME280;21773;50.010;19.972;2023-01-28T09:57:51;99407.84;;;6.03;44.37
35655;BME280;21773;50.010;19.972;2023-01-28T10:00:59;99387.44;;;6.02;44.38
35655;BME280;21773;50.010;19.972;2023-01-28T10:04:17;99397.63;;;6.22;44.22
35655;BME280;21773;50.010;19.972;2023-01-28T10:07:33;99399.72;;;6.34;45.08
35655;BME280;21773;50.010;19.972;2023-01-28T10:10:42;99403.78;;;6.45;44.68
35655;BME280;21773;50.010;19.972;2023-01-28T10:13:53;99401.13;;;6.45;43.49
35655;BME280;21773;50.010;19.972;2023-01-28T10:17:06;99393.81;;;6.53;43.93
35655;BME280;21773;50.010;19.972;2023-01-28T10:20:19;99390.13;;;6.69;43.28
35655;BME280;21773;50.010;19.972;2023-01-28T10:23:38;99385.88;;;6.75;43.11
35655;BME280;21773;50.010;19.972;2023-01-28T10:26:43;99387.25;;;6.85;42.89
35655;BME280;21773;50.010;19.972;2023-01-28T10:29:48;99386.97;;;6.95;42.70
35655;BME280;21773;50.010;19.972;2023-01-28T10:32:55;99383.19;;;6.89;42.13
35655;BME280;21773;50.010;19.972;2023-01-28T10:36:02;99390.88;;;6.78;42.43
35655;BME280;21773;50.010;19.972;2023-01-28T10:39:11;99383.00;;;6.62;42.73
35655;BME280;21773;50.010;19.972;2023-01-28T10:42:25;99382.84;;;6.63;43.17
35655;BME280;21773;50.010;19.972;2023-01-28T10:45:31;99379.69;;;6.45;42.87
35655;BME280;21773;50.010;19.972;2023-01-28T10:48:40;99396.50;;;6.53;42.89
35655;BME280;21773;50.010;19.972;2023-01-28T10:51:45;99380.06;;;6.57;43.06
35655;BME280;21773;50.010;19.972;2023-01-28T10:54:59;99380.31;;;6.62;42.85
35655;BME280;21773;50.010;19.972;2023-01-28T10:58:03;99355.38;;;6.46;43.11
35655;BME280;21773;50.010;19.972;2023-01-28T11:01:07;99378.03;;;6.59;43.11
35655;BME280;21773;50.010;19.972;2023-01-28T11:04:16;99374.06;;;6.55;42.84
35655;BME280;21773;50.010;19.972;2023-01-28T11:07:21;99375.69;;;6.56;42.82
35655;BME280;21773;50.010;19.972;2023-01-28T11:10:29;99388.47;;;6.53;42.98
35655;BME280;21773;50.010;19.972;2023-01-28T11:13:33;99379.78;;;6.51;42.73
35655;BME280;21773;50.010;19.972;2023-01-28T11:16:38;99375.91;;;6.54;42.78
35655;BME280;21773;50.010;19.972;2023-01-28T11:19:42;99360.25;;;6.28;43.04
35655;BME280;21773;50.010;19.972;2023-01-28T11:22:46;99376.53;;;6.56;43.33
35655;BME280;21773;50.010;19.972;2023-01-28T11:26:03;99372.41;;;6.68;43.14
35655;BME280;21773;50.010;19.972;2023-01-28T11:29:21;99377.47;;;6.78;43.34
35655;BME280;21773;50.010;19.972;2023-01-28T11:32:27;99368.13;;;6.88;42.51
35655;BME280;21773;50.010;19.972;2023-01-28T11:35:31;99371.38;;;6.99;42.44
35655;BME280;21773;50.010;19.972;2023-01-28T11:38:35;99371.44;;;7.05;41.97
35655;BME280;21773;50.010;19.972;2023-01-28T11:41:39;99365.44;;;7.03;41.99
35655;BME280;21773;50.010;19.972;2023-01-28T11:44:43;99365.63;;;7.02;42.15
35655;BME280;21773;50.010;19.972;2023-01-28T11:47:59;99367.06;;;7.04;42.03
35655;BME280;21773;50.010;19.972;2023-01-28T11:51:17;99362.38;;;7.06;41.83
35655;BME280;21773;50.010;19.972;2023-01-28T11:54:36;99366.72;;;7.07;42.05
35655;BME280;21773;50.010;19.972;2023-01-28T11:57:54;99370.25;;;7.08;41.81
35655;BME280;21773;50.010;19.972;2023-01-28T12:01:06;99355.25;;;7.13;41.89
35655;BME280;21773;50.010;19.972;2023-01-28T12:04:24;99361.25;;;7.15;41.63
35655;BME280;21773;50.010;19.972;2023-01-28T12:07:40;99367.81;;;7.13;41.55
35655;BME280;21773;50.010;19.972;2023-01-28T12:10:57;99357.41;;;7.03;41.83
35655;BME280;21773;50.010;19.972;2023-01-28T12:14:12;99363.38;;;7.05;41.67
35655;BME280;21773;50.010;19.972;2023-01-28T12:17:31;99369.41;;;7.07;42.08
35655;BME280;21773;50.010;19.972;2023-01-28T12:20:47;99366.91;;;7.06;41.95
35655;BME280;21773;50.010;19.972;2023-01-28T12:24:03;99356.91;;;7.00;41.92
35655;BME280;21773;50.010;19.972;2023-01-28T12:27:23;99358.22;;;7.04;41.93
35655;BME280;21773;50.010;19.972;2023-01-28T12:30:41;99372.25;;;7.06;42.07
35655;BME280;21773;50.010;19.972;2023-01-28T12:33:58;99367.91;;;7.05;42.05
35655;BME280;21773;50.010;19.972;2023-01-28T12:37:11;99369.31;;;7.01;42.19
35655;BME280;21773;50.010;19.972;2023-01-28T12:40:33;99361.00;;;6.95;42.43
35655;BME280;21773;50.010;19.972;2023-01-28T12:43:46;99347.25;;;6.84;42.62
35655;BME280;21773;50.010;19.972;2023-01-28T12:46:55;99370.25;;;6.93;42.73
35655;BME280;21773;50.010;19.972;2023-01-28T12:50:10;99370.06;;;6.94;42.62
35655;BME280;21773;50.010;19.972;2023-01-28T12:53:22;99364.91;;;6.93;42.42
35655;BME280;21773;50.010;19.972;2023-01-28T12:56:30;99370.88;;;6.95;42.53
35655;BME280;21773;50.010;19.972;2023-01-28T12:59:40;99371.09;;;6.93;42.79
35655;BME280;21773;50.010;19.972;2023-01-28T13:02:54;99380.72;;;6.88;43.10
35655;BME280;21773;50.010;19.972;2023-01-28T13:06:03;99377.00;;;6.89;42.74
35655;BME280;21773;50.010;19.972;2023-01-28T13:09:15;99373.94;;;6.92;42.79
35655;BME280;21773;50.010;19.972;2023-01-28T13:12:20;99372.84;;;6.86;42.69
35655;BME280;21773;50.010;19.972;2023-01-28T13:15:25;99375.06;;;6.97;42.75
35655;BME280;21773;50.010;19.972;2023-01-28T13:18:40;99374.09;;;7.05;42.67
35655;BME280;21773;50.010;19.972;2023-01-28T13:21:46;99376.91;;;6.97;42.72
35655;BME280;21773;50.010;19.972;2023-01-28T13:24:50;99382.59;;;7.09;42.80
35655;BME280;21773;50.010;19.972;2023-01-28T13:27:56;99384.94;;;7.12;42.49
35655;BME280;21773;50.010;19.972;2023-01-28T13:31:01;99387.69;;;7.18;42.23
35655;BME280;21773;50.010;19.972;2023-01-28T13:34:10;99388.06;;;7.15;41.97
35655;BME280;21773;50.010;19.972;2023-01-28T13:37:22;99382.69;;;7.15;42.23
35655;BME280;21773;50.010;19.972;2023-01-28T13:40:28;99384.38;;;7.16;41.91
35655;BME280;21773;50.010;19.972;2023-01-28T13:43:37;99395.53;;;7.20;42.03
35655;BME280;21773;50.010;19.972;2023-01-28T13:46:42;99395.53;;;7.20;41.82
35655;BME280;21773;50.010;19.972;2023-01-28T13:49:49;99391.41;;;7.17;41.87
35655;BME280;21773;50.010;19.972;2023-01-28T13:52:59;99397.88;;;7.23;41.48
35655;BME280;21773;50.010;19.972;2023-01-28T13:56:08;99389.34;;;7.19;41.23
35655;BME280;21773;50.010;19.972;2023-01-28T13:59:33;99406.09;;;7.21;41.57
35655;BME280;21773;50.010;19.972;2023-01-28T14:02:57;99408.09;;;7.19;41.71
35655;BME280;21773;50.010;19.972;2023-01-28T14:06:31;99398.59;;;7.17;41.70
35655;BME280;21773;50.010;19.972;2023-01-28T14:09:56;99410.06;;;7.11;41.77
35655;BME280;21773;50.010;19.972;2023-01-28T14:16:45;99409.88;;;7.12;41.40
35655;BME280;21773;50.010;19.972;2023-01-28T14:19:55;99416.66;;;7.08;41.28
35655;BME280;21773;50.010;19.972;2023-01-28T14:23:03;99419.50;;;7.07;41.24
35655;BME280;21773;50.010;19.972;2023-01-28T14:26:15;99409.53;;;7.01;41.42
35655;BME280;21773;50.010;19.972;2023-01-28T14:29:30;99416.28;;;6.96;41.27
35655;BME280;21773;50.010;19.972;2023-01-28T14:32:44;99417.94;;;6.97;41.67
35655;BME280;21773;50.010;19.972;2023-01-28T14:35:48;99423.09;;;6.99;41.44
35655;BME280;21773;50.010;19.972;2023-01-28T14:38:54;99415.06;;;6.99;41.09
35655;BME280;21773;50.010;19.972;2023-01-28T14:42:00;99418.13;;;6.96;41.40
35655;BME280;21773;50.010;19.972;2023-01-28T14:45:14;99419.53;;;6.92;41.52
35655;BME280;21773;50.010;19.972;2023-01-28T14:48:23;99420.69;;;6.89;41.53
35655;BME280;21773;50.010;19.972;2023-01-28T14:51:41;99421.19;;;6.93;41.79
35655;BME280;21773;50.010;19.972;2023-01-28T14:54:57;99409.44;;;6.79;41.50
35655;BME280;21773;50.010;19.972;2023-01-28T14:58:06;99427.19;;;6.95;41.72
35655;BME280;21773;50.010;19.972;2023-01-28T15:01:22;99429.69;;;6.96;41.69
35655;BME280;21773;50.010;19.972;2023-01-28T15:04:28;99421.91;;;6.87;41.68
35655;BME280;21773;50.010;19.972;2023-01-28T15:07:31;99441.13;;;6.90;41.90
35655;BME280;21773;50.010;19.972;2023-01-28T15:10:37;99441.06;;;6.84;42.22
35655;BME280;21773;50.010;19.972;2023-01-28T15:13:43;99430.97;;;6.71;42.46
35655;BME280;21773;50.010;19.972;2023-01-28T15:16:48;99447.44;;;6.83;42.52
35655;BME280;21773;50.010;19.972;2023-01-28T15:19:53;99448.44;;;6.82;42.49
35655;BME280;21773;50.010;19.972;2023-01-28T15:23:00;99449.63;;;6.79;43.42
35655;BME280;21773;50.010;19.972;2023-01-28T15:26:07;99455.47;;;6.68;43.95
35655;BME280;21773;50.010;19.972;2023-01-28T15:29:29;99450.38;;;6.73;44.16
35655;BME280;21773;50.010;19.972;2023-01-28T15:32:33;99449.53;;;6.73;44.17
35655;BME280;21773;50.010;19.972;2023-01-28T15:35:36;99460.56;;;6.78;44.24
35655;BME280;21773;50.010;19.972;2023-01-28T15:38:39;99463.88;;;6.80;44.54
35655;BME280;21773;50.010;19.972;2023-01-28T15:41:50;99467.94;;;6.76;44.76
35655;BME280;21773;50.010;19.972;2023-01-28T15:44:55;99460.09;;;6.74;44.89
35655;BME280;21773;50.010;19.972;2023-01-28T15:48:05;99469.22;;;6.80;44.89
35655;BME280;21773;50.010;19.972;2023-01-28T15:51:17;99469.59;;;6.77;44.96
35655;BME280;21773;50.010;19.972;2023-01-28T15:54:22;99471.44;;;6.76;45.12
35655;BME280;21773;50.010;19.972;2023-01-28T15:57:30;99469.97;;;6.74;44.99
35655;BME280;21773;50.010;19.972;2023-01-28T16:00:33;99477.47;;;6.78;45.17
35655;BME280;21773;50.010;19.972;2023-01-28T16:03:38;99475.06;;;6.83;44.93
35655;BME280;21773;50.010;19.972;2023-01-28T16:06:41;99474.41;;;6.81;44.93
35655;BME280;21773;50.010;19.972;2023-01-28T16:09:50;99472.94;;;6.79;45.04
35655;BME280;21773;50.010;19.972;2023-01-28T16:13:03;99477.25;;;6.80;45.09
35655;BME280;21773;50.010;19.972;2023-01-28T16:16:08;99476.34;;;6.87;44.85
35655;BME280;21773;50.010;19.972;2023-01-28T16:19:22;99480.06;;;6.86;45.01
35655;BME280;21773;50.010;19.972;2023-01-28T16:22:33;99474.31;;;6.89;44.97
35655;BME280;21773;50.010;19.972;2023-01-28T16:25:36;99479.88;;;6.88;44.97
35655;BME280;21773;50.010;19.972;2023-01-28T16:28:41;99461.09;;;6.73;45.01
35655;BME280;21773;50.010;19.972;2023-01-28T16:31:44;99491.31;;;6.82;45.16
35655;BME280;21773;50.010;19.972;2023-01-28T16:34:48;99481.25;;;6.84;45.32
35655;BME280;21773;50.010;19.972;2023-01-28T16:37:52;99475.53;;;6.87;45.32
35655;BME280;21773;50.010;19.972;2023-01-28T16:40:55;99489.03;;;6.93;45.38
35655;BME280;21773;50.010;19.972;2023-01-28T16:44:01;99487.16;;;6.94;45.42